Watson Lake, Canada
Current Conditions -  °F | °C
As of 2:00 PM on Friday 28 Nov 2014 (Local Time) from CYQH Reporting Station
Clear Clear  
Wind Chill: -17°   Ceiling: Unl
Heat Index: -17°   Visibility: 20mi
Dew Point: -24°   Wind: 0mph
Humidity: 70%   Direction: NA
Pressure: 30.14"   Gusts: NA
Location:  60.06°N, 128.71°W
Report Text: CYQH 282200Z 00000KT 20SM SKC M27/M31 A3014 RMK SLP300
Loading
Personal Weather Stations






























Interactive Weather Map New forecast layout! Learn more

10-Day Weather Forecast

Advertisements
Track Severe Weather on mobile